createdAt,value
2022-08-12T00:00:05.846Z,23.86
2022-08-12T00:02:51.132Z,23.85
2022-08-12T00:05:39.912Z,24.07
2022-08-12T00:08:45.435Z,24.30
2022-08-12T00:11:30.639Z,24.25
2022-08-12T00:14:15.937Z,24.20
2022-08-12T00:17:01.644Z,24.35
2022-08-12T00:19:47.053Z,24.51
2022-08-12T00:22:33.315Z,24.36
2022-08-12T00:25:20.011Z,24.36
2022-08-12T00:28:25.480Z,24.70
2022-08-12T00:31:11.497Z,24.71
2022-08-12T00:33:57.384Z,24.67
2022-08-12T00:36:50.075Z,24.68
2022-08-12T00:39:36.158Z,24.81
2022-08-12T00:42:12.890Z,24.76
2022-08-12T00:44:45.567Z,24.56
2022-08-12T00:47:25.183Z,24.70
2022-08-12T00:49:54.970Z,24.57
2022-08-12T00:52:22.898Z,24.70
2022-08-12T00:54:59.520Z,24.51
2022-08-12T00:57:31.860Z,24.22
2022-08-12T01:00:08.561Z,23.96
2022-08-12T01:02:40.564Z,23.79
2022-08-12T01:05:32.589Z,23.85
2022-08-12T01:08:18.469Z,23.54
2022-08-12T01:11:05.440Z,23.33
2022-08-12T01:13:34.517Z,23.46
2022-08-12T01:16:03.985Z,22.98
2022-08-12T01:18:39.511Z,22.88
2022-08-12T01:21:09.013Z,22.86
2022-08-12T01:24:31.452Z,22.91
2022-08-12T01:27:00.156Z,23.23
2022-08-12T01:29:32.832Z,23.11
2022-08-12T01:32:05.441Z,22.99
2022-08-12T01:34:37.546Z,23.01
2022-08-12T01:37:10.072Z,23.45
2022-08-12T01:40:33.931Z,23.60
2022-08-12T01:42:49.042Z,23.43
2022-08-12T01:45:17.752Z,23.57
2022-08-12T01:48:15.976Z,23.88
2022-08-12T01:51:00.238Z,23.85
2022-08-12T01:53:50.433Z,23.54
2022-08-12T01:56:22.054Z,23.47
2022-08-12T01:59:12.532Z,23.66
2022-08-12T02:01:41.438Z,23.97
2022-08-12T02:04:54.661Z,23.81
2022-08-12T02:07:56.799Z,23.54
2022-08-12T02:11:00.693Z,23.85
2022-08-12T02:13:55.376Z,23.76
2022-08-12T02:16:40.321Z,23.74
2022-08-12T02:19:22.456Z,23.32
2022-08-12T02:22:12.683Z,23.17
2022-08-12T02:24:42.390Z,23.24
2022-08-12T02:27:10.629Z,23.26
2022-08-12T02:29:39.653Z,23.33
2022-08-12T02:32:07.507Z,23.72
2022-08-12T02:34:35.250Z,23.82
2022-08-12T02:37:03.924Z,23.74
2022-08-12T02:39:34.054Z,23.60
2022-08-12T02:42:03.952Z,23.78
2022-08-12T02:44:37.601Z,23.11
2022-08-12T02:47:06.379Z,22.86
2022-08-12T02:49:39.924Z,22.57
2022-08-12T02:52:10.326Z,22.59
2022-08-12T02:54:38.713Z,22.09
2022-08-12T02:57:06.281Z,22.02
2022-08-12T02:59:35.681Z,22.33
2022-08-12T03:02:04.195Z,21.84
2022-08-12T03:04:46.440Z,22.14
2022-08-12T03:07:55.837Z,22.48
2022-08-12T03:10:34.699Z,22.49
2022-08-12T03:13:07.213Z,21.52
2022-08-12T03:15:35.762Z,21.54
2022-08-12T03:18:37.768Z,21.58
2022-08-12T03:21:04.662Z,21.44
2022-08-12T03:23:31.678Z,21.37
2022-08-12T03:26:03.195Z,21.68
2022-08-12T03:28:52.049Z,21.75
2022-08-12T03:31:25.901Z,21.72
2022-08-12T03:34:01.911Z,21.96
2022-08-12T03:36:35.729Z,22.26
2022-08-12T03:39:16.009Z,21.49
2022-08-12T03:42:07.642Z,21.49
2022-08-12T03:45:04.834Z,21.80
2022-08-12T03:47:53.804Z,21.80
2022-08-12T03:50:39.671Z,22.19
2022-08-12T03:53:27.079Z,22.23
2022-08-12T03:56:13.007Z,22.04
2022-08-12T03:59:00.397Z,22.19
2022-08-12T04:01:27.535Z,22.49
2022-08-12T04:03:55.039Z,22.36
2022-08-12T04:06:34.550Z,22.24
2022-08-12T04:09:05.300Z,22.41
2022-08-12T04:12:01.609Z,22.35
2022-08-12T04:14:28.438Z,21.51
2022-08-12T04:16:57.153Z,21.70
2022-08-12T04:19:26.310Z,21.46
2022-08-12T04:22:01.663Z,21.94
2022-08-12T04:24:35.501Z,21.60
2022-08-12T04:27:08.703Z,21.31
2022-08-12T04:30:21.112Z,21.64
2022-08-12T04:32:25.432Z,21.75
2022-08-12T04:34:52.930Z,21.77
2022-08-12T04:37:19.783Z,21.83
2022-08-12T04:39:46.811Z,21.84
2022-08-12T04:42:13.862Z,21.68
2022-08-12T04:44:42.236Z,21.59
2022-08-12T04:47:16.580Z,21.69
2022-08-12T04:49:45.909Z,22.13
2022-08-12T04:52:13.119Z,22.25
2022-08-12T04:54:39.989Z,21.97
2022-08-12T04:57:09.810Z,21.88
2022-08-12T04:59:46.882Z,22.20
2022-08-12T05:02:21.770Z,22.29
2022-08-12T05:04:55.747Z,22.17
2022-08-12T05:07:24.396Z,21.97
2022-08-12T05:10:00.161Z,21.82
2022-08-12T05:12:34.234Z,21.76
2022-08-12T05:15:01.080Z,22.03
2022-08-12T05:17:28.282Z,22.04
2022-08-12T05:19:57.227Z,21.99
2022-08-12T05:22:27.993Z,22.01
2022-08-12T05:24:55.075Z,22.05
2022-08-12T05:27:23.062Z,22.06
2022-08-12T05:30:07.678Z,22.00
2022-08-12T05:32:36.478Z,22.19
2022-08-12T05:35:06.593Z,22.02
2022-08-12T05:37:34.943Z,22.21
2022-08-12T05:40:08.296Z,21.95
2022-08-12T05:42:37.908Z,22.43
2022-08-12T05:45:05.986Z,22.15
2022-08-12T05:47:42.743Z,22.39
2022-08-12T05:50:19.807Z,22.22
2022-08-12T05:52:47.930Z,21.62
2022-08-12T05:55:14.974Z,21.55
2022-08-12T05:57:41.621Z,21.98
2022-08-12T06:00:08.764Z,22.07
2022-08-12T06:02:35.702Z,22.04
2022-08-12T06:05:02.744Z,22.32
2022-08-12T06:08:00.661Z,22.32
2022-08-12T06:10:17.706Z,22.33
2022-08-12T06:12:58.881Z,22.37
2022-08-12T06:15:25.588Z,22.46
2022-08-12T06:17:55.328Z,22.74
2022-08-12T06:20:29.080Z,22.66
2022-08-12T06:22:57.005Z,21.71
2022-08-12T06:25:29.271Z,22.59
2022-08-12T06:28:06.318Z,22.61
2022-08-12T06:30:38.549Z,22.61
2022-08-12T06:33:22.255Z,22.83
2022-08-12T06:35:51.882Z,23.39
2022-08-12T06:38:25.229Z,22.94
2022-08-12T06:41:16.427Z,23.19
2022-08-12T06:44:05.025Z,23.38
2022-08-12T06:46:31.137Z,23.42
2022-08-12T06:48:59.575Z,23.68
2022-08-12T06:51:31.172Z,23.83
2022-08-12T06:53:59.255Z,22.99
2022-08-12T06:56:45.972Z,23.32
2022-08-12T06:59:14.200Z,23.53
2022-08-12T07:01:40.881Z,23.89
2022-08-12T07:04:35.684Z,22.92
2022-08-12T07:07:02.917Z,22.83
2022-08-12T07:10:04.628Z,23.13
2022-08-12T07:12:19.997Z,23.96
2022-08-12T07:14:51.498Z,23.95
2022-08-12T07:17:18.723Z,23.97
2022-08-12T07:19:46.887Z,24.27
2022-08-12T07:22:16.203Z,23.67
2022-08-12T07:24:42.991Z,24.01
2022-08-12T07:27:10.128Z,23.97
2022-08-12T07:30:02.510Z,24.21
2022-08-12T07:32:24.700Z,24.44
2022-08-12T07:34:54.709Z,24.24
2022-08-12T07:37:21.497Z,24.48
2022-08-12T07:39:51.303Z,24.92
2022-08-12T07:42:27.952Z,25.26
2022-08-12T07:44:56.001Z,25.01
2022-08-12T07:47:23.320Z,24.46
2022-08-12T07:50:04.271Z,24.47
2022-08-12T07:52:34.143Z,24.70
2022-08-12T07:55:01.750Z,24.61
2022-08-12T07:57:28.447Z,24.44
2022-08-12T07:59:55.570Z,25.09
2022-08-12T08:02:27.064Z,25.00
2022-08-12T08:04:57.278Z,24.42
2022-08-12T08:07:30.635Z,24.49
2022-08-12T08:10:02.299Z,24.93
2022-08-12T08:12:49.142Z,24.75
2022-08-12T08:15:17.110Z,25.05
2022-08-12T08:18:03.269Z,24.84
2022-08-12T08:20:34.019Z,24.76
2022-08-12T08:23:08.128Z,24.91
2022-08-12T08:25:38.771Z,25.25
2022-08-12T08:28:17.253Z,24.94
2022-08-12T08:30:46.143Z,24.73
2022-08-12T08:34:04.732Z,25.05
2022-08-12T08:36:16.604Z,25.12
2022-08-12T08:38:58.432Z,24.93
2022-08-12T08:42:13.922Z,25.03
2022-08-12T08:44:39.564Z,25.11
2022-08-12T08:47:07.823Z,25.51
2022-08-12T08:49:37.376Z,25.81
2022-08-12T08:52:09.545Z,25.41
2022-08-12T08:54:37.848Z,25.47
2022-08-12T08:57:06.262Z,25.23
2022-08-12T08:59:32.928Z,25.28
2022-08-12T09:02:00.692Z,25.84
2022-08-12T09:05:13.858Z,26.22
2022-08-12T09:07:51.070Z,26.10
2022-08-12T09:10:15.457Z,26.09
2022-08-12T09:13:23.662Z,26.66
2022-08-12T09:18:43.597Z,26.78
2022-08-12T09:21:11.293Z,26.24
2022-08-12T09:23:59.488Z,25.70
2022-08-12T09:26:28.258Z,25.60
2022-08-12T09:28:57.133Z,25.45
2022-08-12T09:32:03.916Z,26.14
2022-08-12T09:34:25.702Z,26.13
2022-08-12T09:37:02.605Z,26.19
2022-08-12T09:40:05.625Z,26.54
2022-08-12T09:43:10.975Z,26.16
2022-08-12T09:46:06.466Z,26.33
2022-08-12T09:48:23.787Z,26.80
2022-08-12T09:50:55.187Z,26.82
2022-08-12T09:53:36.127Z,26.23
2022-08-12T09:57:03.182Z,26.74
2022-08-12T09:58:59.827Z,26.72
2022-08-12T10:01:35.626Z,26.68
2022-08-12T10:04:15.023Z,26.91
2022-08-12T10:06:55.268Z,27.14
2022-08-12T10:09:28.215Z,26.83
2022-08-12T10:12:31.129Z,26.60
2022-08-12T10:15:15.368Z,26.77
2022-08-12T10:18:07.022Z,27.10
2022-08-12T10:20:34.599Z,26.42
2022-08-12T10:23:01.920Z,26.82
2022-08-12T10:26:34.605Z,26.97
2022-08-12T10:29:02.357Z,26.75
2022-08-12T10:32:19.553Z,26.84
2022-08-12T10:34:26.369Z,27.31
2022-08-12T10:37:10.556Z,27.64
2022-08-12T10:40:07.098Z,27.62
2022-08-12T10:42:57.558Z,27.60
2022-08-12T10:45:27.419Z,26.95
2022-08-12T10:48:07.304Z,26.41
2022-08-12T10:51:02.126Z,27.03
2022-08-12T10:53:43.867Z,27.47
2022-08-12T10:56:17.228Z,27.44
2022-08-12T10:58:47.261Z,27.53
2022-08-12T11:01:25.775Z,27.07
2022-08-12T11:04:31.297Z,27.18
2022-08-12T11:07:10.201Z,27.16
2022-08-12T11:10:00.072Z,26.69
2022-08-12T11:12:56.543Z,26.35
2022-08-12T11:15:20.826Z,26.75
2022-08-12T11:17:53.851Z,26.89
2022-08-12T11:20:24.221Z,27.64
2022-08-12T11:23:03.788Z,27.42
2022-08-12T11:25:57.733Z,27.27
2022-08-12T11:28:33.940Z,27.78
2022-08-12T11:31:03.612Z,27.50
2022-08-12T11:34:05.527Z,27.35
2022-08-12T11:36:21.806Z,27.56
2022-08-12T11:38:50.360Z,28.26
2022-08-12T11:41:31.861Z,27.75
2022-08-12T11:44:35.463Z,27.53
2022-08-12T11:46:51.425Z,27.40
2022-08-12T11:49:26.821Z,27.43
2022-08-12T11:51:58.895Z,27.63
2022-08-12T11:54:25.581Z,27.19
2022-08-12T11:57:00.352Z,27.42
2022-08-12T12:02:20.149Z,26.51
2022-08-12T12:04:52.692Z,26.84
2022-08-12T12:07:33.662Z,27.40
2022-08-12T12:10:11.071Z,26.23
2022-08-12T12:12:38.128Z,27.13
2022-08-12T12:15:09.689Z,27.39
2022-08-12T12:17:38.461Z,26.77
2022-08-12T12:20:11.498Z,26.95
2022-08-12T12:22:41.472Z,27.48
2022-08-12T12:25:13.725Z,27.75
2022-08-12T12:28:04.696Z,27.77
2022-08-12T12:30:33.018Z,27.51
2022-08-12T12:33:01.082Z,27.74
2022-08-12T12:36:06.444Z,28.02
2022-08-12T12:38:15.993Z,28.20
2022-08-12T12:40:46.172Z,28.22
2022-08-12T12:43:29.019Z,28.14
2022-08-12T12:46:05.427Z,27.73
2022-08-12T12:48:32.073Z,27.90
2022-08-12T12:51:49.136Z,27.70
2022-08-12T12:54:06.145Z,27.29
2022-08-12T12:56:36.645Z,27.99
2022-08-12T12:59:06.922Z,27.22
2022-08-12T13:01:53.925Z,28.00
2022-08-12T13:04:20.697Z,27.43
2022-08-12T13:06:52.087Z,27.35
2022-08-12T13:09:19.441Z,27.96
2022-08-12T13:11:53.150Z,28.35
2022-08-12T13:14:28.141Z,28.52
2022-08-12T13:17:03.609Z,26.61
2022-08-12T13:19:38.958Z,27.37
2022-08-12T13:22:18.538Z,28.09
2022-08-12T13:24:46.434Z,28.58
2022-08-12T13:27:20.912Z,27.82
2022-08-12T13:29:48.944Z,28.46
2022-08-12T13:32:28.191Z,28.38
2022-08-12T13:35:04.305Z,28.44
2022-08-12T13:37:54.661Z,27.89
2022-08-12T13:40:25.689Z,28.46
2022-08-12T13:42:58.008Z,27.63
2022-08-12T13:45:30.893Z,27.91
2022-08-12T13:48:00.123Z,28.28
2022-08-12T13:50:36.252Z,27.98
2022-08-12T13:53:24.605Z,28.16
2022-08-12T13:55:59.446Z,27.87
2022-08-12T13:58:28.855Z,28.22
2022-08-12T14:00:58.258Z,28.28
2022-08-12T14:03:28.416Z,27.56
2022-08-12T14:06:15.633Z,28.01
2022-08-12T14:08:43.272Z,27.32
2022-08-12T14:11:12.311Z,26.49
2022-08-12T14:14:05.232Z,27.10
2022-08-12T14:16:37.586Z,26.34
2022-08-12T14:19:22.203Z,26.37
2022-08-12T14:21:59.544Z,26.51
2022-08-12T14:24:40.351Z,27.37
2022-08-12T14:27:10.424Z,27.12
2022-08-12T14:30:04.380Z,27.16
2022-08-12T14:32:34.846Z,27.32
2022-08-12T14:35:03.112Z,27.99
2022-08-12T14:37:56.509Z,27.12
2022-08-12T14:40:18.632Z,27.04
2022-08-12T14:42:54.718Z,26.06
2022-08-12T14:45:22.920Z,26.04
2022-08-12T14:47:53.655Z,26.22
2022-08-12T14:50:41.815Z,26.91
2022-08-12T14:54:55.944Z,26.95
2022-08-12T14:59:20.182Z,27.50
2022-08-12T15:01:49.745Z,27.19
2022-08-12T15:04:28.574Z,26.55
2022-08-12T15:06:56.170Z,26.24
2022-08-12T15:09:29.035Z,26.07
2022-08-12T15:12:03.254Z,26.68
2022-08-12T15:14:31.582Z,26.08
2022-08-12T15:17:00.692Z,26.76
2022-08-12T15:20:30.959Z,26.43
2022-08-12T15:22:38.599Z,26.90
2022-08-12T15:25:07.214Z,27.07
2022-08-12T15:28:04.109Z,27.09
2022-08-12T15:30:31.433Z,26.63
2022-08-12T15:32:59.009Z,26.64
2022-08-12T15:35:31.399Z,26.78
2022-08-12T15:38:19.755Z,26.40
2022-08-12T15:40:55.425Z,26.66
2022-08-12T15:43:35.447Z,26.79
2022-08-12T15:46:14.893Z,27.03
2022-08-12T15:48:46.700Z,27.30
2022-08-12T15:51:59.509Z,27.31
2022-08-12T15:54:33.522Z,27.02
2022-08-12T15:57:05.542Z,27.19
2022-08-12T16:00:00.231Z,27.18
2022-08-12T16:02:19.867Z,26.81
2022-08-12T16:04:50.512Z,27.34
2022-08-12T16:07:21.776Z,27.39
2022-08-12T16:10:08.478Z,26.88
2022-08-12T16:12:54.318Z,27.12
2022-08-12T16:15:26.436Z,26.20
2022-08-12T16:18:14.657Z,26.26
2022-08-12T16:20:46.484Z,26.25
2022-08-12T16:23:36.423Z,26.90
2022-08-12T16:26:14.683Z,26.53
2022-08-12T16:28:43.859Z,27.01
2022-08-12T16:31:14.499Z,27.08
2022-08-12T16:33:59.562Z,27.26
2022-08-12T16:36:28.975Z,27.12
2022-08-12T16:38:55.715Z,26.67
2022-08-12T16:41:23.308Z,27.06
2022-08-12T16:43:50.586Z,27.19
2022-08-12T16:46:32.607Z,27.15
2022-08-12T16:49:04.309Z,27.12
2022-08-12T16:51:40.313Z,27.14
2022-08-12T16:54:12.747Z,27.12
2022-08-12T16:56:50.893Z,27.06
2022-08-12T16:59:31.146Z,27.14
2022-08-12T17:02:30.058Z,26.95
2022-08-12T17:04:59.849Z,26.85
2022-08-12T17:07:36.587Z,26.92
2022-08-12T17:10:06.900Z,27.07
2022-08-12T17:12:33.703Z,26.96
2022-08-12T17:15:50.141Z,26.91
2022-08-12T17:18:15.254Z,26.45
2022-08-12T17:20:47.426Z,26.72
2022-08-12T17:23:16.569Z,26.80
2022-08-12T17:25:50.493Z,26.82
2022-08-12T17:28:18.218Z,26.88
2022-08-12T17:30:46.119Z,26.82
2022-08-12T17:33:25.238Z,26.81
2022-08-12T17:35:52.061Z,26.79
2022-08-12T17:38:21.099Z,26.70
2022-08-12T17:40:48.574Z,26.78
2022-08-12T17:43:57.833Z,26.67
2022-08-12T17:46:13.068Z,26.61
2022-08-12T17:48:55.444Z,26.48
2022-08-12T17:51:31.415Z,26.38
2022-08-12T17:54:10.493Z,26.41
2022-08-12T17:56:39.338Z,26.41
2022-08-12T17:59:12.163Z,26.39
2022-08-12T18:01:45.065Z,26.37
2022-08-12T18:04:22.633Z,26.31
2022-08-12T18:07:01.662Z,26.37
2022-08-12T18:09:32.192Z,26.39
2022-08-12T18:12:34.405Z,26.17
2022-08-12T18:15:08.943Z,26.13
2022-08-12T18:17:39.108Z,26.14
2022-08-12T18:20:15.498Z,26.13
2022-08-12T18:22:46.754Z,26.25
2022-08-12T18:26:14.728Z,26.26
2022-08-12T18:28:29.067Z,26.22
2022-08-12T18:31:03.071Z,26.13
2022-08-12T18:33:43.809Z,26.09
2022-08-12T18:36:13.414Z,26.23
2022-08-12T18:38:41.190Z,26.14
2022-08-12T18:41:33.627Z,26.08
2022-08-12T18:44:10.217Z,25.96
2022-08-12T18:46:55.721Z,25.86
2022-08-12T18:49:34.912Z,25.69
2022-08-12T18:52:05.799Z,25.49
2022-08-12T18:54:49.334Z,25.75
2022-08-12T18:58:06.919Z,25.87
2022-08-12T19:00:22.157Z,25.96
2022-08-12T19:02:53.454Z,25.94
2022-08-12T19:05:20.828Z,25.89
2022-08-12T19:08:01.800Z,25.96
2022-08-12T19:10:30.845Z,25.85
2022-08-12T19:13:23.359Z,25.80
2022-08-12T19:15:54.779Z,25.72
2022-08-12T19:18:30.199Z,25.73
2022-08-12T19:21:11.742Z,25.84
2022-08-12T19:23:39.326Z,25.81
2022-08-12T19:26:10.787Z,25.02
2022-08-12T19:28:40.141Z,24.73
2022-08-12T19:31:57.241Z,24.65
2022-08-12T19:38:02.535Z,25.06
2022-08-12T19:40:31.693Z,25.05
2022-08-12T19:43:02.363Z,24.92
2022-08-12T19:45:49.575Z,25.00
2022-08-12T19:48:19.154Z,25.05
2022-08-12T19:50:50.211Z,25.11
2022-08-12T19:53:20.508Z,25.19
2022-08-12T19:55:54.752Z,25.43
2022-08-12T19:58:23.192Z,25.48
2022-08-12T20:00:53.565Z,25.42
2022-08-12T20:03:38.006Z,25.54
2022-08-12T20:06:11.278Z,25.56
2022-08-12T20:08:48.924Z,25.55
2022-08-12T20:12:13.201Z,25.63
2022-08-12T20:14:09.099Z,25.62
2022-08-12T20:19:53.211Z,24.78
2022-08-12T20:22:29.896Z,24.64
2022-08-12T20:25:01.707Z,25.06
2022-08-12T20:28:03.076Z,25.07
2022-08-12T20:30:17.908Z,25.15
2022-08-12T20:32:55.857Z,25.23
2022-08-12T20:35:25.039Z,25.37
2022-08-12T20:38:26.836Z,25.46
2022-08-12T20:40:55.221Z,25.44
2022-08-12T20:43:24.178Z,25.41
2022-08-12T20:45:58.086Z,25.33
2022-08-12T20:48:29.597Z,25.14
2022-08-12T20:51:04.550Z,25.09
2022-08-12T20:53:58.074Z,24.56
2022-08-12T20:56:22.165Z,24.05
2022-08-12T20:59:00.048Z,24.14
2022-08-12T21:01:36.601Z,24.44
2022-08-12T21:04:33.806Z,24.50
2022-08-12T21:07:04.675Z,24.54
2022-08-12T21:09:45.540Z,24.90
2022-08-12T21:12:31.611Z,24.80
2022-08-12T21:15:24.336Z,24.75
2022-08-12T21:18:11.252Z,24.77
2022-08-12T21:20:53.168Z,24.66
2022-08-12T21:23:22.553Z,24.24
2022-08-12T21:25:51.297Z,24.13
2022-08-12T21:28:21.070Z,24.55
2022-08-12T21:31:10.836Z,24.41
2022-08-12T21:33:58.378Z,24.46
2022-08-12T21:36:34.545Z,24.34
2022-08-12T21:39:19.002Z,24.62
2022-08-12T21:41:51.264Z,24.52
2022-08-12T21:44:24.213Z,24.41
2022-08-12T21:47:20.404Z,24.67
2022-08-12T21:49:55.237Z,24.70
2022-08-12T21:52:28.311Z,24.90
2022-08-12T21:55:01.523Z,24.87
2022-08-12T21:57:30.422Z,24.60
2022-08-12T22:00:05.646Z,24.93
2022-08-12T22:03:02.030Z,25.02
2022-08-12T22:05:47.212Z,25.22
2022-08-12T22:08:17.094Z,25.09
2022-08-12T22:10:52.354Z,24.93
2022-08-12T22:14:04.142Z,25.05
2022-08-12T22:16:07.036Z,24.83
2022-08-12T22:18:33.772Z,24.87
2022-08-12T22:21:00.463Z,24.67
2022-08-12T22:23:51.179Z,24.79
2022-08-12T22:26:16.052Z,25.04
2022-08-12T22:29:14.598Z,25.04
2022-08-12T22:31:44.039Z,24.95
2022-08-12T22:34:18.056Z,24.93
2022-08-12T22:36:45.166Z,24.90
2022-08-12T22:39:15.837Z,24.88
2022-08-12T22:42:01.147Z,24.78
2022-08-12T22:44:52.758Z,24.77
2022-08-12T22:47:54.136Z,24.73
2022-08-12T22:50:27.114Z,24.42
2022-08-12T22:53:15.098Z,24.39
2022-08-12T22:56:00.672Z,24.54
2022-08-12T22:58:33.699Z,24.56
2022-08-12T23:01:02.400Z,24.51
2022-08-12T23:03:47.880Z,24.65
2022-08-12T23:06:19.418Z,24.75
2022-08-12T23:08:46.484Z,24.86
2022-08-12T23:11:16.072Z,24.87
2022-08-12T23:13:56.267Z,24.95
2022-08-12T23:16:31.202Z,25.01
2022-08-12T23:19:09.616Z,24.97
2022-08-12T23:22:03.183Z,24.97
2022-08-12T23:24:29.386Z,24.72
2022-08-12T23:27:15.089Z,24.79
2022-08-12T23:29:43.160Z,24.62
2022-08-12T23:32:13.477Z,24.56
2022-08-12T23:35:02.659Z,24.70
2022-08-12T23:37:47.814Z,24.87
2022-08-12T23:40:19.650Z,24.98
2022-08-12T23:42:48.177Z,25.07
2022-08-12T23:45:20.146Z,25.04
2022-08-12T23:48:00.226Z,25.01
2022-08-12T23:50:34.542Z,25.03
2022-08-12T23:53:05.329Z,24.87
2022-08-12T23:55:40.986Z,24.96
2022-08-12T23:58:18.156Z,24.87
